sensor_id;sensor_type;location;lat;lon;timestamp;P1;durP1;ratioP1;P2;durP2;ratioP2
15952;SDS011;8075;47.766;8.846;2023-03-23T00:01:20;2.60;;;2.40;;
15952;SDS011;8075;47.766;8.846;2023-03-23T00:03:48;2.63;;;2.30;;
15952;SDS011;8075;47.766;8.846;2023-03-23T00:06:14;3.17;;;2.37;;
15952;SDS011;8075;47.766;8.846;2023-03-23T00:08:42;2.83;;;2.42;;
15952;SDS011;8075;47.766;8.846;2023-03-23T00:11:18;2.85;;;2.33;;
15952;SDS011;8075;47.766;8.846;2023-03-23T00:13:45;2.75;;;2.50;;
15952;SDS011;8075;47.766;8.846;2023-03-23T00:16:11;3.10;;;2.50;;
15952;SDS011;8075;47.766;8.846;2023-03-23T00:18:47;3.17;;;2.30;;
15952;SDS011;8075;47.766;8.846;2023-03-23T00:21:17;2.90;;;2.03;;
15952;SDS011;8075;47.766;8.846;2023-03-23T00:23:43;2.78;;;2.00;;
15952;SDS011;8075;47.766;8.846;2023-03-23T00:26:10;2.30;;;2.10;;
15952;SDS011;8075;47.766;8.846;2023-03-23T00:28:36;2.80;;;2.13;;
15952;SDS011;8075;47.766;8.846;2023-03-23T00:31:04;2.40;;;2.13;;
15952;SDS011;8075;47.766;8.846;2023-03-23T00:33:32;2.97;;;2.30;;
15952;SDS011;8075;47.766;8.846;2023-03-23T00:36:05;3.03;;;1.92;;
15952;SDS011;8075;47.766;8.846;2023-03-23T00:38:33;2.30;;;2.10;;
15952;SDS011;8075;47.766;8.846;2023-03-23T00:40:59;2.63;;;1.92;;
15952;SDS011;8075;47.766;8.846;2023-03-23T00:43:28;2.97;;;2.00;;
15952;SDS011;8075;47.766;8.846;2023-03-23T00:45:54;2.50;;;1.93;;
15952;SDS011;8075;47.766;8.846;2023-03-23T00:48:20;3.25;;;2.30;;
15952;SDS011;8075;47.766;8.846;2023-03-23T00:50:46;4.38;;;2.13;;
15952;SDS011;8075;47.766;8.846;2023-03-23T00:53:13;3.10;;;2.10;;
15952;SDS011;8075;47.766;8.846;2023-03-23T00:55:42;2.10;;;1.90;;
15952;SDS011;8075;47.766;8.846;2023-03-23T00:58:09;2.88;;;2.00;;
15952;SDS011;8075;47.766;8.846;2023-03-23T01:00:35;2.85;;;2.13;;
15952;SDS011;8075;47.766;8.846;2023-03-23T01:03:01;2.25;;;2.05;;
15952;SDS011;8075;47.766;8.846;2023-03-23T01:05:27;2.75;;;2.05;;
15952;SDS011;8075;47.766;8.846;2023-03-23T01:07:57;2.58;;;2.03;;
15952;SDS011;8075;47.766;8.846;2023-03-23T01:10:23;3.10;;;2.00;;
15952;SDS011;8075;47.766;8.846;2023-03-23T01:12:51;3.00;;;2.25;;
15952;SDS011;8075;47.766;8.846;2023-03-23T01:15:17;2.95;;;2.42;;
15952;SDS011;8075;47.766;8.846;2023-03-23T01:17:44;3.08;;;2.78;;
15952;SDS011;8075;47.766;8.846;2023-03-23T01:20:11;3.22;;;2.30;;
15952;SDS011;8075;47.766;8.846;2023-03-23T01:22:37;2.50;;;2.30;;
15952;SDS011;8075;47.766;8.846;2023-03-23T01:25:04;2.50;;;2.30;;
15952;SDS011;8075;47.766;8.846;2023-03-23T01:27:30;2.42;;;2.22;;
15952;SDS011;8075;47.766;8.846;2023-03-23T01:29:56;2.40;;;2.15;;
15952;SDS011;8075;47.766;8.846;2023-03-23T01:32:22;3.42;;;2.20;;
15952;SDS011;8075;47.766;8.846;2023-03-23T01:34:48;3.85;;;2.17;;
15952;SDS011;8075;47.766;8.846;2023-03-23T01:37:14;2.33;;;1.90;;
15952;SDS011;8075;47.766;8.846;2023-03-23T01:39:41;2.55;;;2.08;;
15952;SDS011;8075;47.766;8.846;2023-03-23T01:42:08;2.63;;;2.20;;
15952;SDS011;8075;47.766;8.846;2023-03-23T01:47:00;2.67;;;2.38;;
15952;SDS011;8075;47.766;8.846;2023-03-23T01:49:31;2.95;;;2.38;;
15952;SDS011;8075;47.766;8.846;2023-03-23T01:52:02;3.45;;;2.20;;
15952;SDS011;8075;47.766;8.846;2023-03-23T01:54:30;2.45;;;2.15;;
15952;SDS011;8075;47.766;8.846;2023-03-23T01:56:57;3.03;;;2.10;;
15952;SDS011;8075;47.766;8.846;2023-03-23T01:59:24;4.00;;;2.08;;
15952;SDS011;8075;47.766;8.846;2023-03-23T02:01:52;2.65;;;1.92;;
15952;SDS011;8075;47.766;8.846;2023-03-23T02:04:18;2.93;;;2.50;;
15952;SDS011;8075;47.766;8.846;2023-03-23T02:06:46;3.13;;;2.35;;
15952;SDS011;8075;47.766;8.846;2023-03-23T02:09:13;2.40;;;2.20;;
15952;SDS011;8075;47.766;8.846;2023-03-23T02:11:42;2.50;;;2.13;;
15952;SDS011;8075;47.766;8.846;2023-03-23T02:14:08;2.40;;;2.20;;
15952;SDS011;8075;47.766;8.846;2023-03-23T02:16:36;2.17;;;1.95;;
15952;SDS011;8075;47.766;8.846;2023-03-23T02:19:19;2.15;;;1.95;;
15952;SDS011;8075;47.766;8.846;2023-03-23T02:22:13;2.20;;;2.00;;
15952;SDS011;8075;47.766;8.846;2023-03-23T02:27:20;2.40;;;2.13;;
15952;SDS011;8075;47.766;8.846;2023-03-23T02:32:35;4.00;;;2.25;;
15952;SDS011;8075;47.766;8.846;2023-03-23T02:35:16;2.53;;;2.30;;
15952;SDS011;8075;47.766;8.846;2023-03-23T02:40:14;2.33;;;2.10;;
15952;SDS011;8075;47.766;8.846;2023-03-23T02:42:42;2.50;;;2.30;;
15952;SDS011;8075;47.766;8.846;2023-03-23T02:45:10;2.33;;;1.98;;
15952;SDS011;8075;47.766;8.846;2023-03-23T02:47:37;3.17;;;2.28;;
15952;SDS011;8075;47.766;8.846;2023-03-23T02:50:04;4.88;;;2.40;;
15952;SDS011;8075;47.766;8.846;2023-03-23T02:52:31;2.60;;;2.40;;
15952;SDS011;8075;47.766;8.846;2023-03-23T02:54:58;2.67;;;2.30;;
15952;SDS011;8075;47.766;8.846;2023-03-23T02:57:27;3.33;;;2.60;;
15952;SDS011;8075;47.766;8.846;2023-03-23T02:59:53;3.50;;;2.80;;
15952;SDS011;8075;47.766;8.846;2023-03-23T03:02:38;4.15;;;2.70;;
15952;SDS011;8075;47.766;8.846;2023-03-23T03:05:15;3.08;;;2.72;;
15952;SDS011;8075;47.766;8.846;2023-03-23T03:07:47;2.65;;;2.35;;
15952;SDS011;8075;47.766;8.846;2023-03-23T03:10:25;3.00;;;2.53;;
15952;SDS011;8075;47.766;8.846;2023-03-23T03:12:57;3.28;;;2.45;;
15952;SDS011;8075;47.766;8.846;2023-03-23T03:15:31;2.83;;;2.10;;
15952;SDS011;8075;47.766;8.846;2023-03-23T03:20:26;4.60;;;2.17;;
15952;SDS011;8075;47.766;8.846;2023-03-23T03:22:52;3.22;;;2.60;;
15952;SDS011;8075;47.766;8.846;2023-03-23T03:25:19;4.00;;;2.70;;
15952;SDS011;8075;47.766;8.846;2023-03-23T03:27:47;2.70;;;2.50;;
15952;SDS011;8075;47.766;8.846;2023-03-23T03:30:14;3.88;;;3.00;;
15952;SDS011;8075;47.766;8.846;2023-03-23T03:32:43;3.33;;;3.00;;
15952;SDS011;8075;47.766;8.846;2023-03-23T03:35:11;3.40;;;2.83;;
15952;SDS011;8075;47.766;8.846;2023-03-23T03:37:38;3.60;;;3.10;;
15952;SDS011;8075;47.766;8.846;2023-03-23T03:40:09;3.10;;;2.80;;
15952;SDS011;8075;47.766;8.846;2023-03-23T03:42:39;3.13;;;2.83;;
15952;SDS011;8075;47.766;8.846;2023-03-23T03:45:06;3.90;;;2.80;;
15952;SDS011;8075;47.766;8.846;2023-03-23T03:47:33;2.88;;;2.67;;
15952;SDS011;8075;47.766;8.846;2023-03-23T03:50:01;3.10;;;2.90;;
15952;SDS011;8075;47.766;8.846;2023-03-23T03:52:27;2.85;;;2.65;;
15952;SDS011;8075;47.766;8.846;2023-03-23T03:54:53;3.42;;;2.90;;
15952;SDS011;8075;47.766;8.846;2023-03-23T03:57:20;3.05;;;2.70;;
15952;SDS011;8075;47.766;8.846;2023-03-23T03:59:47;2.80;;;2.60;;
15952;SDS011;8075;47.766;8.846;2023-03-23T04:02:13;2.95;;;2.53;;
15952;SDS011;8075;47.766;8.846;2023-03-23T04:04:41;3.30;;;3.00;;
15952;SDS011;8075;47.766;8.846;2023-03-23T04:07:08;3.00;;;2.80;;
15952;SDS011;8075;47.766;8.846;2023-03-23T04:09:39;2.97;;;2.78;;
15952;SDS011;8075;47.766;8.846;2023-03-23T04:12:05;3.22;;;2.70;;
15952;SDS011;8075;47.766;8.846;2023-03-23T04:14:31;2.83;;;2.50;;
15952;SDS011;8075;47.766;8.846;2023-03-23T04:16:57;3.30;;;2.63;;
15952;SDS011;8075;47.766;8.846;2023-03-23T04:19:24;2.70;;;2.50;;
15952;SDS011;8075;47.766;8.846;2023-03-23T04:21:50;3.57;;;2.90;;
15952;SDS011;8075;47.766;8.846;2023-03-23T04:24:16;2.65;;;2.45;;
15952;SDS011;8075;47.766;8.846;2023-03-23T04:26:46;3.20;;;2.80;;
15952;SDS011;8075;47.766;8.846;2023-03-23T04:29:12;2.70;;;2.50;;
15952;SDS011;8075;47.766;8.846;2023-03-23T04:31:38;3.40;;;3.10;;
15952;SDS011;8075;47.766;8.846;2023-03-23T04:34:05;3.22;;;2.15;;
15952;SDS011;8075;47.766;8.846;2023-03-23T04:36:31;3.33;;;2.85;;
15952;SDS011;8075;47.766;8.846;2023-03-23T04:38:59;2.85;;;2.55;;
15952;SDS011;8075;47.766;8.846;2023-03-23T04:41:25;2.92;;;2.67;;
15952;SDS011;8075;47.766;8.846;2023-03-23T04:43:52;3.10;;;2.70;;
15952;SDS011;8075;47.766;8.846;2023-03-23T04:46:21;3.00;;;2.70;;
15952;SDS011;8075;47.766;8.846;2023-03-23T04:48:47;3.30;;;2.90;;
15952;SDS011;8075;47.766;8.846;2023-03-23T04:51:13;4.43;;;2.88;;
15952;SDS011;8075;47.766;8.846;2023-03-23T04:53:39;3.10;;;2.87;;
15952;SDS011;8075;47.766;8.846;2023-03-23T04:56:06;2.50;;;2.22;;
15952;SDS011;8075;47.766;8.846;2023-03-23T04:58:32;2.50;;;2.30;;
15952;SDS011;8075;47.766;8.846;2023-03-23T05:00:59;2.53;;;2.25;;
15952;SDS011;8075;47.766;8.846;2023-03-23T05:03:25;3.53;;;2.40;;
15952;SDS011;8075;47.766;8.846;2023-03-23T05:05:52;3.00;;;2.70;;
15952;SDS011;8075;47.766;8.846;2023-03-23T05:08:21;3.17;;;2.30;;
15952;SDS011;8075;47.766;8.846;2023-03-23T05:10:49;4.85;;;2.60;;
15952;SDS011;8075;47.766;8.846;2023-03-23T05:13:16;3.83;;;3.00;;
15952;SDS011;8075;47.766;8.846;2023-03-23T05:15:42;3.40;;;2.38;;
15952;SDS011;8075;47.766;8.846;2023-03-23T05:18:08;3.17;;;2.40;;
15952;SDS011;8075;47.766;8.846;2023-03-23T05:20:35;2.85;;;2.40;;
15952;SDS011;8075;47.766;8.846;2023-03-23T05:23:01;3.08;;;2.80;;
15952;SDS011;8075;47.766;8.846;2023-03-23T05:25:27;3.35;;;2.60;;
15952;SDS011;8075;47.766;8.846;2023-03-23T05:27:53;4.07;;;2.80;;
15952;SDS011;8075;47.766;8.846;2023-03-23T05:30:19;3.13;;;2.83;;
15952;SDS011;8075;47.766;8.846;2023-03-23T05:32:46;3.00;;;2.80;;
15952;SDS011;8075;47.766;8.846;2023-03-23T05:35:15;3.20;;;2.90;;
15952;SDS011;8075;47.766;8.846;2023-03-23T05:37:42;3.00;;;2.70;;
15952;SDS011;8075;47.766;8.846;2023-03-23T05:40:09;3.45;;;3.15;;
15952;SDS011;8075;47.766;8.846;2023-03-23T05:42:37;3.72;;;2.83;;
15952;SDS011;8075;47.766;8.846;2023-03-23T05:45:05;3.57;;;3.33;;
15952;SDS011;8075;47.766;8.846;2023-03-23T05:47:31;3.33;;;3.03;;
15952;SDS011;8075;47.766;8.846;2023-03-23T05:49:57;3.50;;;3.20;;
15952;SDS011;8075;47.766;8.846;2023-03-23T05:52:23;3.10;;;2.80;;
15952;SDS011;8075;47.766;8.846;2023-03-23T05:54:50;3.22;;;2.95;;
15952;SDS011;8075;47.766;8.846;2023-03-23T05:57:16;3.05;;;2.75;;
15952;SDS011;8075;47.766;8.846;2023-03-23T05:59:43;3.30;;;3.00;;
15952;SDS011;8075;47.766;8.846;2023-03-23T06:02:09;2.83;;;2.63;;
15952;SDS011;8075;47.766;8.846;2023-03-23T06:04:36;4.15;;;2.80;;
15952;SDS011;8075;47.766;8.846;2023-03-23T06:07:03;3.08;;;2.75;;
15952;SDS011;8075;47.766;8.846;2023-03-23T06:09:29;3.20;;;2.90;;
15952;SDS011;8075;47.766;8.846;2023-03-23T06:11:55;3.15;;;2.85;;
15952;SDS011;8075;47.766;8.846;2023-03-23T06:14:22;3.28;;;2.90;;
15952;SDS011;8075;47.766;8.846;2023-03-23T06:16:48;3.03;;;2.83;;
15952;SDS011;8075;47.766;8.846;2023-03-23T06:19:14;3.65;;;3.08;;
15952;SDS011;8075;47.766;8.846;2023-03-23T06:21:40;3.30;;;3.00;;
15952;SDS011;8075;47.766;8.846;2023-03-23T06:24:06;3.75;;;3.28;;
15952;SDS011;8075;47.766;8.846;2023-03-23T06:26:34;3.60;;;3.30;;
15952;SDS011;8075;47.766;8.846;2023-03-23T06:29:01;3.90;;;3.55;;
15952;SDS011;8075;47.766;8.846;2023-03-23T06:31:27;4.57;;;3.75;;
15952;SDS011;8075;47.766;8.846;2023-03-23T06:33:53;4.88;;;3.70;;
15952;SDS011;8075;47.766;8.846;2023-03-23T06:36:20;4.40;;;4.00;;
15952;SDS011;8075;47.766;8.846;2023-03-23T06:38:47;4.60;;;3.83;;
15952;SDS011;8075;47.766;8.846;2023-03-23T06:41:13;5.32;;;3.78;;
15952;SDS011;8075;47.766;8.846;2023-03-23T06:43:39;4.43;;;4.00;;
15952;SDS011;8075;47.766;8.846;2023-03-23T06:46:06;4.75;;;4.25;;
15952;SDS011;8075;47.766;8.846;2023-03-23T06:48:32;5.10;;;4.17;;
15952;SDS011;8075;47.766;8.846;2023-03-23T06:50:58;4.72;;;4.32;;
15952;SDS011;8075;47.766;8.846;2023-03-23T06:53:24;4.13;;;3.72;;
15952;SDS011;8075;47.766;8.846;2023-03-23T06:55:50;5.50;;;4.20;;
15952;SDS011;8075;47.766;8.846;2023-03-23T06:58:16;5.50;;;4.25;;
15952;SDS011;8075;47.766;8.846;2023-03-23T07:00:42;4.38;;;3.92;;
15952;SDS011;8075;47.766;8.846;2023-03-23T07:03:09;5.90;;;4.10;;
15952;SDS011;8075;47.766;8.846;2023-03-23T07:05:35;4.28;;;3.88;;
15952;SDS011;8075;47.766;8.846;2023-03-23T07:08:04;5.43;;;3.97;;
15952;SDS011;8075;47.766;8.846;2023-03-23T07:10:31;4.40;;;3.33;;
15952;SDS011;8075;47.766;8.846;2023-03-23T07:12:58;4.10;;;3.70;;
15952;SDS011;8075;47.766;8.846;2023-03-23T07:15:24;4.35;;;3.95;;
15952;SDS011;8075;47.766;8.846;2023-03-23T07:17:50;7.00;;;4.10;;
15952;SDS011;8075;47.766;8.846;2023-03-23T07:20:16;3.95;;;3.65;;
15952;SDS011;8075;47.766;8.846;2023-03-23T07:22:42;5.00;;;3.50;;
15952;SDS011;8075;47.766;8.846;2023-03-23T07:25:08;4.30;;;3.90;;
15952;SDS011;8075;47.766;8.846;2023-03-23T07:27:35;4.10;;;3.70;;
15952;SDS011;8075;47.766;8.846;2023-03-23T07:30:01;4.63;;;3.85;;
15952;SDS011;8075;47.766;8.846;2023-03-23T07:32:27;4.82;;;4.00;;
15952;SDS011;8075;47.766;8.846;2023-03-23T07:34:53;5.03;;;4.13;;
15952;SDS011;8075;47.766;8.846;2023-03-23T07:37:19;4.57;;;4.03;;
15952;SDS011;8075;47.766;8.846;2023-03-23T07:39:45;6.20;;;4.40;;
15952;SDS011;8075;47.766;8.846;2023-03-23T07:42:11;5.57;;;4.53;;
15952;SDS011;8075;47.766;8.846;2023-03-23T07:44:37;5.47;;;4.30;;
15952;SDS011;8075;47.766;8.846;2023-03-23T07:47:03;6.90;;;4.15;;
15952;SDS011;8075;47.766;8.846;2023-03-23T07:49:29;4.63;;;3.90;;
15952;SDS011;8075;47.766;8.846;2023-03-23T07:51:56;4.22;;;3.80;;
15952;SDS011;8075;47.766;8.846;2023-03-23T07:54:22;5.68;;;4.50;;
15952;SDS011;8075;47.766;8.846;2023-03-23T07:56:48;4.93;;;4.43;;
15952;SDS011;8075;47.766;8.846;2023-03-23T07:59:14;5.95;;;4.50;;
15952;SDS011;8075;47.766;8.846;2023-03-23T08:01:40;4.97;;;4.40;;
15952;SDS011;8075;47.766;8.846;2023-03-23T08:04:06;4.65;;;4.25;;
15952;SDS011;8075;47.766;8.846;2023-03-23T08:06:33;4.93;;;4.43;;
15952;SDS011;8075;47.766;8.846;2023-03-23T08:08:59;4.90;;;4.50;;
15952;SDS011;8075;47.766;8.846;2023-03-23T08:11:33;5.18;;;4.68;;
15952;SDS011;8075;47.766;8.846;2023-03-23T08:13:59;5.43;;;5.03;;
15952;SDS011;8075;47.766;8.846;2023-03-23T08:16:25;5.20;;;4.35;;
15952;SDS011;8075;47.766;8.846;2023-03-23T08:18:52;5.85;;;5.25;;
15952;SDS011;8075;47.766;8.846;2023-03-23T08:21:18;5.22;;;4.72;;
15952;SDS011;8075;47.766;8.846;2023-03-23T08:23:45;5.00;;;4.50;;
15952;SDS011;8075;47.766;8.846;2023-03-23T08:26:12;7.35;;;4.80;;
15952;SDS011;8075;47.766;8.846;2023-03-23T08:28:40;10.13;;;4.83;;
15952;SDS011;8075;47.766;8.846;2023-03-23T08:31:07;5.85;;;4.63;;
15952;SDS011;8075;47.766;8.846;2023-03-23T08:33:35;9.68;;;4.30;;
15952;SDS011;8075;47.766;8.846;2023-03-23T08:36:01;9.10;;;5.65;;
15952;SDS011;8075;47.766;8.846;2023-03-23T08:38:28;8.40;;;5.73;;
15952;SDS011;8075;47.766;8.846;2023-03-23T08:40:58;10.05;;;5.38;;
15952;SDS011;8075;47.766;8.846;2023-03-23T08:43:24;7.00;;;5.03;;
15952;SDS011;8075;47.766;8.846;2023-03-23T08:45:52;4.30;;;3.83;;
15952;SDS011;8075;47.766;8.846;2023-03-23T08:48:18;4.75;;;3.50;;
15952;SDS011;8075;47.766;8.846;2023-03-23T08:50:44;3.33;;;3.03;;
15952;SDS011;8075;47.766;8.846;2023-03-23T08:53:10;4.68;;;3.05;;
15952;SDS011;8075;47.766;8.846;2023-03-23T08:55:36;3.70;;;2.70;;
15952;SDS011;8075;47.766;8.846;2023-03-23T08:58:03;3.28;;;2.58;;
15952;SDS011;8075;47.766;8.846;2023-03-23T09:00:29;3.53;;;2.53;;
15952;SDS011;8075;47.766;8.846;2023-03-23T09:02:56;2.90;;;2.63;;
15952;SDS011;8075;47.766;8.846;2023-03-23T09:05:23;2.65;;;2.45;;
15952;SDS011;8075;47.766;8.846;2023-03-23T09:07:51;3.00;;;2.47;;
15952;SDS011;8075;47.766;8.846;2023-03-23T09:10:17;4.05;;;2.55;;
15952;SDS011;8075;47.766;8.846;2023-03-23T09:12:44;3.50;;;3.17;;
15952;SDS011;8075;47.766;8.846;2023-03-23T09:15:11;4.38;;;3.30;;
15952;SDS011;8075;47.766;8.846;2023-03-23T09:17:39;5.38;;;3.45;;
15952;SDS011;8075;47.766;8.846;2023-03-23T09:20:07;2.47;;;1.90;;
15952;SDS011;8075;47.766;8.846;2023-03-23T09:22:38;2.78;;;2.58;;
15952;SDS011;8075;47.766;8.846;2023-03-23T09:25:05;2.20;;;1.80;;
15952;SDS011;8075;47.766;8.846;2023-03-23T09:27:31;2.20;;;1.77;;
15952;SDS011;8075;47.766;8.846;2023-03-23T09:29:57;3.40;;;2.28;;
15952;SDS011;8075;47.766;8.846;2023-03-23T09:32:23;2.38;;;2.00;;
15952;SDS011;8075;47.766;8.846;2023-03-23T09:34:49;3.25;;;1.80;;
15952;SDS011;8075;47.766;8.846;2023-03-23T09:37:16;2.67;;;1.60;;
15952;SDS011;8075;47.766;8.846;2023-03-23T09:39:42;2.83;;;1.55;;
15952;SDS011;8075;47.766;8.846;2023-03-23T09:44:54;1.90;;;1.55;;
15952;SDS011;8075;47.766;8.846;2023-03-23T09:47:32;3.80;;;1.80;;
15952;SDS011;8075;47.766;8.846;2023-03-23T09:52:37;3.83;;;2.10;;
15952;SDS011;8075;47.766;8.846;2023-03-23T09:55:04;2.53;;;2.33;;
15952;SDS011;8075;47.766;8.846;2023-03-23T09:57:36;2.53;;;1.90;;
15952;SDS011;8075;47.766;8.846;2023-03-23T10:02:48;2.05;;;1.80;;
15952;SDS011;8075;47.766;8.846;2023-03-23T10:07:48;2.08;;;1.70;;
15952;SDS011;8075;47.766;8.846;2023-03-23T10:10:14;2.25;;;1.60;;
15952;SDS011;8075;47.766;8.846;2023-03-23T10:12:42;2.85;;;1.80;;
15952;SDS011;8075;47.766;8.846;2023-03-23T10:15:18;3.60;;;1.70;;
15952;SDS011;8075;47.766;8.846;2023-03-23T10:17:57;7.18;;;1.80;;
15952;SDS011;8075;47.766;8.846;2023-03-23T10:22:57;10.02;;;2.10;;
15952;SDS011;8075;47.766;8.846;2023-03-23T10:25:29;5.75;;;1.70;;
15952;SDS011;8075;47.766;8.846;2023-03-23T10:28:00;3.00;;;1.63;;
15952;SDS011;8075;47.766;8.846;2023-03-23T10:30:38;3.90;;;1.48;;
15952;SDS011;8075;47.766;8.846;2023-03-23T10:38:14;3.38;;;1.70;;
15952;SDS011;8075;47.766;8.846;2023-03-23T10:40:46;2.45;;;1.70;;
15952;SDS011;8075;47.766;8.846;2023-03-23T10:43:13;3.25;;;1.67;;
15952;SDS011;8075;47.766;8.846;2023-03-23T10:45:40;2.53;;;1.60;;
15952;SDS011;8075;47.766;8.846;2023-03-23T10:48:14;2.30;;;1.50;;
15952;SDS011;8075;47.766;8.846;2023-03-23T10:50:41;2.42;;;1.40;;
15952;SDS011;8075;47.766;8.846;2023-03-23T10:53:21;2.10;;;1.67;;
15952;SDS011;8075;47.766;8.846;2023-03-23T10:55:47;3.08;;;1.88;;
15952;SDS011;8075;47.766;8.846;2023-03-23T10:58:22;3.37;;;1.33;;
15952;SDS011;8075;47.766;8.846;2023-03-23T11:00:49;2.65;;;1.50;;
15952;SDS011;8075;47.766;8.846;2023-03-23T11:05:49;1.83;;;1.50;;
15952;SDS011;8075;47.766;8.846;2023-03-23T11:08:18;2.80;;;1.80;;
15952;SDS011;8075;47.766;8.846;2023-03-23T11:10:55;2.20;;;1.60;;
15952;SDS011;8075;47.766;8.846;2023-03-23T11:13:23;4.13;;;1.90;;
15952;SDS011;8075;47.766;8.846;2023-03-23T11:15:53;2.92;;;1.67;;
15952;SDS011;8075;47.766;8.846;2023-03-23T11:18:24;3.33;;;1.73;;
15952;SDS011;8075;47.766;8.846;2023-03-23T11:20:54;2.40;;;1.73;;
15952;SDS011;8075;47.766;8.846;2023-03-23T11:23:28;2.38;;;1.60;;
15952;SDS011;8075;47.766;8.846;2023-03-23T11:28:28;1.85;;;1.30;;
15952;SDS011;8075;47.766;8.846;2023-03-23T11:30:55;2.30;;;1.60;;
15952;SDS011;8075;47.766;8.846;2023-03-23T11:33:21;2.92;;;1.60;;
15952;SDS011;8075;47.766;8.846;2023-03-23T11:35:51;1.55;;;1.27;;
15952;SDS011;8075;47.766;8.846;2023-03-23T11:38:18;3.60;;;1.70;;
15952;SDS011;8075;47.766;8.846;2023-03-23T11:40:49;2.03;;;1.60;;
15952;SDS011;8075;47.766;8.846;2023-03-23T11:43:23;4.35;;;1.73;;
15952;SDS011;8075;47.766;8.846;2023-03-23T11:45:58;2.47;;;1.65;;
15952;SDS011;8075;47.766;8.846;2023-03-23T11:48:30;1.90;;;1.50;;
15952;SDS011;8075;47.766;8.846;2023-03-23T11:51:05;1.92;;;1.52;;
15952;SDS011;8075;47.766;8.846;2023-03-23T11:56:50;3.53;;;1.90;;
15952;SDS011;8075;47.766;8.846;2023-03-23T11:59:11;2.80;;;1.65;;
15952;SDS011;8075;47.766;8.846;2023-03-23T12:06:57;2.50;;;2.03;;
15952;SDS011;8075;47.766;8.846;2023-03-23T12:12:12;2.40;;;1.73;;
15952;SDS011;8075;47.766;8.846;2023-03-23T12:17:44;1.50;;;1.40;;
15952;SDS011;8075;47.766;8.846;2023-03-23T12:20:16;3.22;;;1.65;;
15952;SDS011;8075;47.766;8.846;2023-03-23T12:22:47;3.60;;;1.60;;
15952;SDS011;8075;47.766;8.846;2023-03-23T12:25:31;1.90;;;1.35;;
15952;SDS011;8075;47.766;8.846;2023-03-23T12:38:03;4.50;;;1.58;;
15952;SDS011;8075;47.766;8.846;2023-03-23T12:40:38;2.28;;;1.50;;
15952;SDS011;8075;47.766;8.846;2023-03-23T12:43:12;1.95;;;1.55;;
15952;SDS011;8075;47.766;8.846;2023-03-23T12:48:24;2.70;;;1.65;;
15952;SDS011;8075;47.766;8.846;2023-03-23T12:51:06;1.30;;;1.20;;
15952;SDS011;8075;47.766;8.846;2023-03-23T12:53:48;1.90;;;1.20;;
15952;SDS011;8075;47.766;8.846;2023-03-23T12:56:18;2.50;;;2.13;;
15952;SDS011;8075;47.766;8.846;2023-03-23T12:58:47;3.78;;;2.80;;
15952;SDS011;8075;47.766;8.846;2023-03-23T13:01:17;2.08;;;1.50;;
15952;SDS011;8075;47.766;8.846;2023-03-23T13:03:59;1.90;;;1.50;;
15952;SDS011;8075;47.766;8.846;2023-03-23T13:11:35;2.17;;;1.27;;
15952;SDS011;8075;47.766;8.846;2023-03-23T13:14:38;1.45;;;1.20;;
15952;SDS011;8075;47.766;8.846;2023-03-23T13:24:33;1.98;;;1.38;;
15952;SDS011;8075;47.766;8.846;2023-03-23T13:27:00;1.50;;;1.23;;
15952;SDS011;8075;47.766;8.846;2023-03-23T13:29:26;2.60;;;1.40;;
15952;SDS011;8075;47.766;8.846;2023-03-23T13:32:04;1.67;;;1.30;;
15952;SDS011;8075;47.766;8.846;2023-03-23T13:34:31;3.22;;;1.60;;
15952;SDS011;8075;47.766;8.846;2023-03-23T13:37:04;3.13;;;1.35;;
15952;SDS011;8075;47.766;8.846;2023-03-23T13:39:47;1.40;;;1.30;;
15952;SDS011;8075;47.766;8.846;2023-03-23T13:47:14;1.60;;;1.40;;
15952;SDS011;8075;47.766;8.846;2023-03-23T13:49:45;1.60;;;1.50;;
15952;SDS011;8075;47.766;8.846;2023-03-23T13:52:16;1.58;;;1.25;;
15952;SDS011;8075;47.766;8.846;2023-03-23T13:54:44;2.97;;;1.38;;
15952;SDS011;8075;47.766;8.846;2023-03-23T13:59:57;2.40;;;1.50;;
15952;SDS011;8075;47.766;8.846;2023-03-23T14:04:55;2.30;;;1.38;;
15952;SDS011;8075;47.766;8.846;2023-03-23T14:07:21;3.15;;;1.67;;
15952;SDS011;8075;47.766;8.846;2023-03-23T14:09:49;1.67;;;1.40;;
15952;SDS011;8075;47.766;8.846;2023-03-23T14:12:17;3.30;;;1.58;;
15952;SDS011;8075;47.766;8.846;2023-03-23T14:14:45;2.40;;;1.30;;
15952;SDS011;8075;47.766;8.846;2023-03-23T14:17:13;1.80;;;1.60;;
15952;SDS011;8075;47.766;8.846;2023-03-23T14:19:40;1.67;;;1.43;;
15952;SDS011;8075;47.766;8.846;2023-03-23T14:22:22;3.22;;;1.50;;
15952;SDS011;8075;47.766;8.846;2023-03-23T14:24:48;2.10;;;1.40;;
15952;SDS011;8075;47.766;8.846;2023-03-23T14:27:24;4.15;;;1.50;;
15952;SDS011;8075;47.766;8.846;2023-03-23T14:30:05;1.77;;;1.33;;
15952;SDS011;8075;47.766;8.846;2023-03-23T14:32:32;4.33;;;1.70;;
15952;SDS011;8075;47.766;8.846;2023-03-23T14:34:58;3.67;;;1.73;;
15952;SDS011;8075;47.766;8.846;2023-03-23T14:37:25;1.63;;;1.40;;
15952;SDS011;8075;47.766;8.846;2023-03-23T14:39:54;2.63;;;1.40;;
15952;SDS011;8075;47.766;8.846;2023-03-23T14:42:29;2.47;;;1.60;;
15952;SDS011;8075;47.766;8.846;2023-03-23T14:44:55;3.60;;;1.60;;
15952;SDS011;8075;47.766;8.846;2023-03-23T14:47:26;2.17;;;1.58;;
15952;SDS011;8075;47.766;8.846;2023-03-23T14:49:54;1.80;;;1.50;;
15952;SDS011;8075;47.766;8.846;2023-03-23T14:52:21;3.78;;;1.60;;
15952;SDS011;8075;47.766;8.846;2023-03-23T14:54:47;5.70;;;1.60;;
15952;SDS011;8075;47.766;8.846;2023-03-23T14:57:17;5.07;;;1.60;;
15952;SDS011;8075;47.766;8.846;2023-03-23T14:59:44;4.05;;;1.70;;
15952;SDS011;8075;47.766;8.846;2023-03-23T15:02:12;4.32;;;1.77;;
15952;SDS011;8075;47.766;8.846;2023-03-23T15:04:38;2.67;;;1.70;;
15952;SDS011;8075;47.766;8.846;2023-03-23T15:07:04;3.63;;;1.60;;
15952;SDS011;8075;47.766;8.846;2023-03-23T15:09:31;3.60;;;1.77;;
15952;SDS011;8075;47.766;8.846;2023-03-23T15:12:00;2.25;;;1.70;;
15952;SDS011;8075;47.766;8.846;2023-03-23T15:14:32;1.88;;;1.77;;
15952;SDS011;8075;47.766;8.846;2023-03-23T15:16:59;3.00;;;1.73;;
15952;SDS011;8075;47.766;8.846;2023-03-23T15:19:32;2.90;;;2.50;;
15952;SDS011;8075;47.766;8.846;2023-03-23T15:22:21;3.00;;;1.90;;
15952;SDS011;8075;47.766;8.846;2023-03-23T15:24:47;6.00;;;1.92;;
15952;SDS011;8075;47.766;8.846;2023-03-23T15:29:56;3.40;;;2.10;;
15952;SDS011;8075;47.766;8.846;2023-03-23T15:34:48;1.80;;;1.70;;
15952;SDS011;8075;47.766;8.846;2023-03-23T15:37:19;2.25;;;1.73;;
15952;SDS011;8075;47.766;8.846;2023-03-23T15:39:46;1.73;;;1.43;;
15952;SDS011;8075;47.766;8.846;2023-03-23T15:42:22;1.85;;;1.60;;
15952;SDS011;8075;47.766;8.846;2023-03-23T15:44:55;3.00;;;1.70;;
15952;SDS011;8075;47.766;8.846;2023-03-23T15:47:22;2.53;;;1.63;;
15952;SDS011;8075;47.766;8.846;2023-03-23T15:49:58;3.30;;;1.90;;
15952;SDS011;8075;47.766;8.846;2023-03-23T15:52:24;2.58;;;1.60;;
15952;SDS011;8075;47.766;8.846;2023-03-23T15:54:50;2.13;;;1.57;;
15952;SDS011;8075;47.766;8.846;2023-03-23T15:57:16;2.08;;;1.88;;
15952;SDS011;8075;47.766;8.846;2023-03-23T15:59:42;2.00;;;1.70;;
15952;SDS011;8075;47.766;8.846;2023-03-23T16:02:13;3.38;;;1.75;;
15952;SDS011;8075;47.766;8.846;2023-03-23T16:04:41;3.00;;;1.70;;
15952;SDS011;8075;47.766;8.846;2023-03-23T16:07:07;2.55;;;1.90;;
15952;SDS011;8075;47.766;8.846;2023-03-23T16:09:37;4.93;;;2.00;;
15952;SDS011;8075;47.766;8.846;2023-03-23T16:12:08;2.97;;;1.80;;
15952;SDS011;8075;47.766;8.846;2023-03-23T16:14:35;2.35;;;1.90;;
15952;SDS011;8075;47.766;8.846;2023-03-23T16:17:01;3.03;;;1.95;;
15952;SDS011;8075;47.766;8.846;2023-03-23T16:19:27;2.10;;;1.80;;
15952;SDS011;8075;47.766;8.846;2023-03-23T16:21:53;2.30;;;1.80;;
15952;SDS011;8075;47.766;8.846;2023-03-23T16:24:19;2.10;;;1.85;;
15952;SDS011;8075;47.766;8.846;2023-03-23T16:26:45;3.63;;;1.80;;
15952;SDS011;8075;47.766;8.846;2023-03-23T16:29:12;3.15;;;1.90;;
15952;SDS011;8075;47.766;8.846;2023-03-23T16:31:38;1.90;;;1.50;;
15952;SDS011;8075;47.766;8.846;2023-03-23T16:34:04;3.60;;;2.00;;
15952;SDS011;8075;47.766;8.846;2023-03-23T16:36:31;3.47;;;1.80;;
15952;SDS011;8075;47.766;8.846;2023-03-23T16:38:57;2.53;;;1.95;;